.
WxDataArchive / Data Records for 2010-06-23
2010-06-22 June 2010 2010-06-24

Data Records for Wednesday, 23 June 2010

Time	Temp	Chill	HIndex	Humid	Dewpt	 Wind 	HiWind	WindDir	Rain 	Barom 
-----	----	-----	------	-----	-----	------	------	-------	-----	----- 
00:00	76.0	76.0	77.4	75	67.5	0	1	270	0.00	30.028 
00:05	76.0	76.0	77.4	75	67.5	0	1	270	0.00	30.028 
00:10	75.8	75.8	77.1	75	67.3	0	1	270	0.00	30.028 
00:15	75.6	75.6	76.8	76	67.5	0	2	270	0.00	30.026 
00:20	75.6	75.6	76.8	76	67.5	0	2	270	0.00	30.026 
00:25	75.6	75.6	76.8	76	67.5	0	2	270	0.00	30.026 
00:30	75.4	75.4	76.4	77	67.7	0	1	270	0.00	30.019 
00:35	75.3	75.3	76.3	77	67.6	0	0	---	0.00	30.019 
00:40	75.3	75.3	76.2	78	68.0	0	1	270	0.00	30.019 
00:45	75.1	75.1	76.0	78	67.8	0	0	---	0.00	30.018 
00:50	74.9	74.9	74.9	79	67.9	0	1	270	0.00	30.018 
00:55	74.7	74.7	74.7	79	67.7	0	1	270	0.00	30.018 
01:00	74.4	74.4	74.4	80	67.8	0	0	---	0.00	30.025 
01:05	74.2	74.2	74.2	81	68.0	0	0	---	0.00	30.025 
01:10	74.0	74.0	74.0	81	67.8	0	0	---	0.00	30.025 
01:15	73.9	73.9	73.9	82	68.0	0	0	---	0.00	30.034 
01:20	73.7	73.7	73.7	83	68.2	0	0	---	0.00	30.034 
01:25	73.5	73.5	73.5	83	68.0	0	0	---	0.00	30.034 
01:30	73.3	73.3	73.3	84	68.2	0	0	---	0.00	30.027 
01:35	73.2	73.2	73.2	84	68.1	0	0	---	0.00	30.027 
01:40	73.0	73.0	73.0	84	67.9	0	0	---	0.00	30.027 
01:45	73.0	73.0	73.0	85	68.2	0	0	---	0.00	30.021 
01:50	72.8	72.8	72.8	85	68.0	0	0	---	0.00	30.021 
01:55	72.7	72.7	72.7	86	68.3	0	0	---	0.00	30.021 
02:00	72.5	72.5	72.5	86	68.1	0	0	---	0.00	30.020 
02:05	72.5	72.5	72.5	86	68.1	0	0	---	0.00	30.020 
02:10	72.5	72.5	72.5	87	68.4	0	1	270	0.00	30.020 
02:15	72.5	72.5	72.5	87	68.4	0	1	270	0.00	30.022 
02:20	72.5	72.5	72.5	87	68.4	0	0	---	0.00	30.022 
02:25	72.5	72.5	72.5	88	68.7	0	0	---	0.00	30.022 
02:30	72.3	72.3	72.3	88	68.5	0	1	270	0.00	30.021 
02:35	72.3	72.3	72.3	88	68.5	0	1	270	0.00	30.021 
02:40	72.3	72.3	72.3	88	68.5	0	0	---	0.00	30.021 
02:45	72.3	72.3	72.3	88	68.5	0	0	---	0.00	30.019 
02:50	72.1	72.1	72.1	88	68.3	0	0	---	0.00	30.019 
02:55	72.0	72.0	72.0	88	68.2	0	0	---	0.00	30.019 
03:00	71.8	71.8	71.8	88	68.0	0	0	---	0.00	30.005 
03:05	71.6	71.6	71.6	89	68.2	0	0	---	0.00	30.005 
03:10	71.5	71.5	71.5	89	68.1	0	0	---	0.00	30.005 
03:15	71.3	71.3	71.3	89	67.9	0	0	---	0.00	29.998 
03:20	71.1	71.1	71.1	90	68.0	0	0	---	0.00	29.998 
03:25	71.1	71.1	71.1	90	68.0	0	0	---	0.00	29.998 
03:30	70.9	70.9	70.9	90	67.8	0	0	---	0.00	29.988 
03:35	70.8	70.8	70.8	91	68.0	0	0	---	0.00	29.988 
03:40	70.8	70.8	70.8	91	68.0	0	0	---	0.00	29.988 
03:45	70.6	70.6	70.6	91	67.8	0	0	---	0.00	29.977 
03:50	70.6	70.6	70.6	91	67.8	0	0	---	0.00	29.977 
03:55	70.4	70.4	70.4	92	68.0	0	0	---	0.00	29.977 
04:00	70.4	70.4	70.4	92	68.0	0	0	---	0.00	29.972 
04:05	70.3	70.3	70.3	92	67.9	0	0	---	0.00	29.972 
04:10	70.3	70.3	70.3	92	67.9	0	0	---	0.00	29.972 
04:15	70.3	70.3	70.3	92	67.9	0	0	---	0.00	29.977 
04:20	70.1	70.1	70.1	92	67.7	0	0	---	0.00	29.977 
04:25	70.1	70.1	70.1	92	67.7	0	0	---	0.00	29.977 
04:30	70.1	70.1	70.1	93	68.0	0	0	---	0.00	29.983 
04:35	70.1	70.1	70.1	93	68.0	0	0	---	0.00	29.983 
04:40	70.1	70.1	70.1	93	68.0	0	0	---	0.00	29.983 
04:45	70.1	70.1	70.1	93	68.0	0	0	---	0.00	29.993 
04:50	70.1	70.1	70.1	93	68.0	0	0	---	0.00	29.993 
04:55	70.1	70.1	70.1	93	68.0	0	0	---	0.00	29.993 
05:00	70.1	70.1	70.1	93	68.0	0	0	---	0.00	29.995 
05:05	70.1	70.1	70.1	94	68.3	0	0	---	0.00	29.995 
05:10	70.3	70.3	70.3	94	68.5	0	0	---	0.00	29.995 
05:15	70.3	70.3	70.3	94	68.5	0	0	---	0.00	30.002 
05:20	70.3	70.3	70.3	94	68.5	0	0	---	0.00	30.002 
05:25	70.3	70.3	70.3	94	68.5	0	0	---	0.00	30.002 
05:30	70.3	70.3	70.3	94	68.5	0	0	---	0.00	30.001 
05:35	70.3	70.3	70.3	94	68.5	0	0	---	0.00	30.001 
05:40	70.3	70.3	70.3	94	68.5	0	0	---	0.00	30.001 
05:45	70.4	70.4	70.4	94	68.6	0	0	---	0.00	30.003 
05:50	70.6	70.6	70.6	94	68.8	0	1	270	0.00	30.003 
05:55	70.8	70.8	70.8	94	69.0	0	1	270	0.00	30.003 
06:00	70.9	70.9	70.9	94	69.1	0	1	270	0.00	30.003 
06:05	71.1	71.1	71.1	94	69.3	0	1	270	0.00	30.003 
06:10	71.1	71.1	71.1	94	69.3	0	0	---	0.00	30.003 
06:15	71.3	71.3	71.3	94	69.5	0	1	270	0.00	30.010 
06:20	71.6	71.6	71.6	94	69.8	0	1	270	0.00	30.010 
06:25	71.8	71.8	71.8	94	70.0	0	1	270	0.00	30.010 
06:30	72.1	72.1	72.1	94	70.3	0	1	270	0.00	30.008 
06:35	72.3	72.3	72.3	94	70.5	0	1	270	0.00	30.008 
06:40	72.7	72.7	72.7	94	70.9	0	3	270	0.00	30.008 
06:45	73.0	73.0	73.0	93	70.8	0	1	270	0.00	30.015 
06:50	73.3	73.3	73.3	93	71.1	0	2	270	0.00	30.015 
06:55	73.7	73.7	73.7	93	71.5	0	2	270	0.00	30.015 
07:00	73.9	73.9	73.9	92	71.4	0	2	225	0.00	30.012 
07:05	74.2	74.2	74.2	92	71.7	0	2	248	0.00	30.012 
07:10	74.4	74.4	74.4	92	71.9	0	2	248	0.00	30.012 
07:15	74.6	74.6	74.6	91	71.8	0	3	292	0.00	30.016 
07:20	74.9	74.9	74.9	91	72.1	0	2	292	0.00	30.016 
07:25	75.1	75.1	74.3	90	72.0	1	4	292	0.00	30.016 
07:30	75.3	75.3	74.7	90	72.2	0	3	270	0.00	30.016 
07:35	75.6	75.6	75.4	89	72.1	0	3	270	0.00	30.016 
07:40	75.8	75.8	75.8	89	72.3	0	2	248	0.00	30.016 
07:45	75.8	75.8	75.9	88	72.0	0	2	248	0.00	30.015 
07:50	76.0	76.0	76.3	88	72.2	1	3	248	0.00	30.015 
07:55	76.3	76.3	76.8	88	72.5	1	5	270	0.00	30.015 
08:00	76.5	76.5	77.3	87	72.3	1	2	225	0.00	30.017 
08:05	76.7	76.7	77.7	87	72.5	0	3	225	0.00	30.017 
08:10	76.8	76.8	78.0	86	72.3	1	3	270	0.00	30.017 
08:15	77.2	77.2	78.8	86	72.7	1	4	270	0.00	30.013 
08:20	77.6	77.6	79.6	85	72.7	1	4	270	0.00	30.013 
08:25	77.9	77.9	80.2	84	72.7	1	2	270	0.00	30.013 
08:30	78.1	78.1	80.6	84	72.9	0	2	270	0.00	29.998 
08:35	78.3	78.3	81.0	83	72.7	1	4	248	0.00	29.998 
08:40	78.6	78.6	81.5	81	72.3	2	5	270	0.00	29.998 
08:45	79.2	79.2	82.7	81	72.8	1	3	270	0.00	29.994 
08:50	79.8	79.8	83.8	80	73.1	1	2	270	0.00	29.994 
08:55	79.9	79.9	83.9	79	72.8	1	3	270	0.00	29.994 
09:00	80.1	80.1	84.2	78	72.6	2	10	248	0.00	29.987 
09:05	80.5	80.5	85.0	78	73.0	2	5	248	0.00	29.987 
09:10	80.5	80.5	84.8	77	72.6	1	4	270	0.00	29.987 
09:15	80.5	80.5	85.0	78	73.0	1	3	270	0.00	29.989 
09:20	80.5	80.5	85.0	78	73.0	1	3	248	0.00	29.989 
09:25	80.7	80.7	85.4	78	73.2	1	3	248	0.00	29.989 
09:30	80.9	80.9	85.7	77	73.0	1	4	248	0.00	29.988 
09:35	81.1	81.1	86.1	77	73.2	1	3	270	0.00	29.988 
09:40	81.1	81.1	86.1	77	73.2	1	5	270	0.00	29.988 
09:45	81.2	81.2	86.3	77	73.3	1	3	292	0.00	29.989 
09:50	81.4	81.4	86.7	77	73.5	1	4	270	0.00	29.989 
09:55	81.8	81.8	87.6	77	73.9	1	3	270	0.00	29.989 
10:00	82.0	82.0	87.8	76	73.7	0	2	270	0.00	29.986 
10:05	82.4	82.4	88.7	76	74.1	1	5	338	0.00	29.986 
10:10	82.8	82.8	89.1	74	73.6	1	3	270	0.00	29.986 
10:15	83.4	83.4	90.1	73	73.8	1	4	338	0.00	29.988 
10:20	83.6	83.6	90.5	73	74.0	1	3	292	0.00	29.988 
10:25	83.8	83.8	91.0	73	74.2	1	3	292	0.00	29.988 
10:30	84.0	84.0	90.8	71	73.6	1	3	292	0.00	29.983 
10:35	84.1	84.1	90.7	70	73.2	1	5	270	0.00	29.983 
10:40	84.5	84.5	90.9	68	72.7	2	4	248	0.00	29.983 
10:45	84.7	84.7	91.3	68	72.9	1	3	270	0.00	29.983 
10:50	84.9	84.9	91.0	66	72.2	2	4	292	0.00	29.983 
10:55	84.9	84.9	91.0	66	72.2	2	4	270	0.00	29.983 
11:00	84.7	84.7	90.6	66	72.1	2	6	270	0.00	29.983 
11:05	84.5	84.5	90.5	67	72.3	2	6	270	0.00	29.983 
11:10	84.3	84.3	90.1	67	72.1	2	4	270	0.00	29.983 
11:15	84.3	84.3	90.1	67	72.1	1	3	270	0.00	29.989 
11:20	84.0	84.0	89.8	68	72.3	1	3	270	0.00	29.989 
11:25	83.0	83.0	88.4	70	72.2	0	2	270	0.00	29.989 
11:30	82.4	82.4	88.4	75	73.7	0	1	270	0.00	29.989 
11:35	82.2	82.2	87.5	73	72.7	0	2	270	0.00	29.989 
11:40	82.2	82.2	87.5	73	72.7	1	3	292	0.00	29.989 
11:45	82.4	82.4	87.9	73	72.9	1	3	270	0.00	29.996 
11:50	82.2	82.2	87.5	73	72.7	1	2	270	0.00	29.996 
11:55	82.2	82.2	87.8	74	73.1	1	3	270	0.00	29.996 
12:00	82.4	82.4	87.9	73	72.9	1	3	270	0.00	30.001 
12:05	82.4	82.4	88.2	74	73.3	0	2	270	0.00	30.001 
12:10	82.8	82.8	88.8	73	73.2	1	3	270	0.00	30.001 
12:15	83.4	83.4	90.4	74	74.2	1	3	270	0.00	30.014 
12:20	83.6	83.6	90.9	74	74.4	1	3	270	0.00	30.014 
12:25	84.0	84.0	91.5	73	74.4	1	3	270	0.00	30.014 
12:30	84.1	84.1	91.7	73	74.5	1	4	270	0.00	30.015 
12:35	84.3	84.3	91.8	72	74.3	2	5	292	0.00	30.015 
12:40	84.7	84.7	93.1	73	75.1	1	4	270	0.00	30.015 
12:45	85.1	85.1	93.3	71	74.6	2	4	270	0.00	30.006 
12:50	85.5	85.5	93.9	70	74.6	1	4	270	0.00	30.006 
12:55	85.7	85.7	93.9	69	74.3	2	7	270	0.00	30.006 
13:00	85.5	85.5	93.1	68	73.7	3	6	270	0.00	30.010 
13:05	85.7	85.7	93.1	67	73.4	2	4	292	0.00	30.010 
13:10	85.7	85.7	93.1	67	73.4	2	8	292	0.00	30.010 
13:15	85.1	85.1	91.8	67	72.9	3	6	270	0.00	30.002 
13:20	84.9	84.9	91.0	66	72.2	4	9	270	0.00	30.002 
13:25	84.7	84.7	91.3	68	72.9	2	5	270	0.00	30.002 
13:30	84.3	84.3	90.5	68	72.6	3	6	270	0.00	29.993 
13:35	84.1	84.1	90.4	69	72.8	3	8	270	0.00	29.993 
13:40	83.4	83.4	89.2	70	72.6	4	13	292	0.00	29.993 
13:45	79.0	79.0	81.6	72	69.2	5	12	315	0.01	30.036 
13:50	76.0	76.0	76.9	81	69.7	3	7	292	0.01	30.036 
13:55	74.4	74.4	74.4	85	69.6	3	6	315	0.01	30.036 
14:00	73.5	73.5	73.5	87	69.4	2	4	292	0.00	30.029 
14:05	73.2	73.2	73.2	89	69.8	1	4	292	0.00	30.029 
14:10	73.2	73.2	73.2	90	70.1	0	1	315	0.00	30.029 
14:15	73.2	73.2	73.2	90	70.1	0	1	315	0.00	30.011 
14:20	73.5	73.5	73.5	91	70.7	0	1	315	0.00	30.011 
14:25	73.9	73.9	73.9	91	71.1	0	1	315	0.00	30.011 
14:30	74.6	74.6	74.6	90	71.5	0	1	315	0.00	29.992 
14:35	75.1	75.1	74.3	90	72.0	0	1	315	0.00	29.992 
14:40	75.6	75.6	75.4	89	72.1	0	1	315	0.00	29.992 
14:45	76.5	76.5	77.2	89	73.0	0	2	315	0.00	29.983 
14:50	76.8	76.8	78.0	86	72.3	0	2	202	0.00	29.983 
14:55	77.0	77.0	78.5	83	71.4	0	1	202	0.00	29.983 
15:00	77.4	77.4	79.2	83	71.8	0	2	202	0.00	29.969 
15:05	78.1	78.1	80.6	83	72.5	0	1	248	0.00	29.969 
15:10	78.5	78.5	81.3	82	72.5	0	2	248	0.00	29.969 
15:15	79.0	79.0	82.1	79	71.9	1	3	270	0.00	29.951 
15:20	79.8	79.8	83.4	77	71.9	1	3	292	0.00	29.951 
15:25	80.3	80.3	84.3	76	72.0	1	3	90	0.00	29.951 
15:30	80.9	80.9	85.0	73	71.4	1	6	248	0.00	29.943 
15:35	81.2	81.2	85.5	73	71.7	2	4	292	0.00	29.943 
15:40	81.6	81.6	86.3	73	72.1	1	3	0	0.01	29.943 
15:45	81.6	81.6	86.1	72	71.7	1	5	270	0.00	29.928 
15:50	81.4	81.4	85.5	71	71.1	1	4	270	0.00	29.928 
15:55	81.6	81.6	86.1	72	71.7	1	5	248	0.00	29.928 
16:00	81.6	81.6	85.9	71	71.3	1	3	248	0.00	29.917 
16:05	81.8	81.8	86.3	71	71.5	1	4	315	0.00	29.917 
16:10	81.8	81.8	85.9	69	70.6	1	3	292	0.00	29.917 
16:15	81.8	81.8	85.9	69	70.6	1	6	270	0.00	29.913 
16:20	82.2	82.2	86.6	69	71.0	1	4	270	0.00	29.913 
16:25	82.4	82.4	86.5	67	70.3	2	4	270	0.00	29.913 
16:30	82.6	82.6	86.9	67	70.5	2	7	270	0.00	29.907 
16:35	82.0	82.0	85.8	67	69.9	2	6	248	0.00	29.907 
16:40	81.8	81.8	85.3	66	69.3	2	5	270	0.00	29.907 
16:45	82.2	82.2	86.1	67	70.1	1	4	270	0.00	29.895 
16:50	83.0	83.0	87.1	65	70.0	2	5	315	0.00	29.895 
16:55	83.2	83.2	87.5	65	70.2	2	9	248	0.00	29.895 
17:00	83.6	83.6	87.9	64	70.1	1	5	270	0.00	29.894 
17:05	84.1	84.1	89.1	65	71.0	1	4	248	0.00	29.894 
17:10	84.7	84.7	89.6	63	70.7	2	6	292	0.00	29.894 
17:15	85.1	85.1	90.4	63	71.1	1	4	270	0.00	29.878 
17:20	85.3	85.3	90.5	62	70.8	2	5	270	0.00	29.878 
17:25	85.5	85.5	91.2	63	71.4	1	4	225	0.00	29.878 
17:30	85.7	85.7	91.6	63	71.6	2	5	292	0.00	29.869 
17:35	85.9	85.9	91.6	62	71.3	2	5	270	0.00	29.869 
17:40	86.1	86.1	92.4	63	72.0	1	4	270	0.00	29.869 
17:45	86.3	86.3	92.8	63	72.2	1	5	248	0.00	29.861 
17:50	86.5	86.5	92.8	62	71.9	2	5	248	0.00	29.861 
17:55	86.5	86.5	93.3	63	72.4	1	4	292	0.00	29.861 
18:00	86.5	86.5	93.3	63	72.4	2	9	270	0.00	29.858 
18:05	86.1	86.1	92.8	64	72.5	2	5	270	0.00	29.858 
18:10	86.1	86.1	93.2	65	72.9	1	4	270	0.00	29.858 
18:15	86.1	86.1	92.8	64	72.5	2	5	270	0.00	29.847 
18:20	86.3	86.3	93.2	64	72.7	2	5	270	0.00	29.847 
18:25	86.1	86.1	92.8	64	72.5	1	3	315	0.00	29.847 
18:30	86.1	86.1	93.2	65	72.9	1	4	225	0.00	29.843 
18:35	86.1	86.1	93.2	65	72.9	2	5	225	0.00	29.843 
18:40	86.1	86.1	93.2	65	72.9	1	4	270	0.00	29.843 
18:45	86.1	86.1	93.2	65	72.9	1	3	270	0.00	29.840 
18:50	86.1	86.1	93.6	66	73.4	1	4	248	0.00	29.840 
18:55	86.3	86.3	93.6	65	73.1	1	4	248	0.00	29.840 
19:00	86.5	86.5	93.3	63	72.4	2	5	270	0.00	29.834 
19:05	86.5	86.5	93.7	64	72.8	3	7	270	0.00	29.834 
19:10	86.5	86.5	93.7	64	72.8	2	5	270	0.00	29.834 
19:15	86.3	86.3	93.6	65	73.1	1	5	248	0.00	29.837 
19:20	86.3	86.3	94.1	66	73.6	1	4	248	0.00	29.837 
19:25	86.3	86.3	93.6	65	73.1	2	4	270	0.00	29.837 
19:30	86.3	86.3	93.6	65	73.1	2	4	270	0.00	29.840 
19:35	86.3	86.3	93.6	65	73.1	2	6	270	0.00	29.840 
19:40	86.1	86.1	93.6	66	73.4	1	3	270	0.00	29.840 
19:45	86.1	86.1	93.6	66	73.4	1	4	270	0.00	29.846 
19:50	85.9	85.9	93.2	66	73.2	2	3	270	0.00	29.846 
19:55	85.9	85.9	93.2	66	73.2	1	3	270	0.00	29.846 
20:00	85.7	85.7	92.7	66	73.0	1	4	270	0.00	29.845 
20:05	85.7	85.7	92.7	66	73.0	1	3	292	0.00	29.845 
20:10	85.3	85.3	92.2	67	73.1	1	2	292	0.00	29.845 
20:15	85.1	85.1	92.2	68	73.3	1	3	292	0.00	29.842 
20:20	84.9	84.9	91.7	68	73.1	0	2	292	0.00	29.842 
20:25	84.7	84.7	91.3	68	72.9	1	3	292	0.00	29.842 
20:30	84.5	84.5	91.2	69	73.2	1	3	292	0.00	29.862 
20:35	84.5	84.5	91.2	69	73.2	1	2	292	0.00	29.862 
20:40	84.5	84.5	91.2	69	73.2	0	2	292	0.00	29.862 
20:45	84.3	84.3	90.8	69	73.0	0	1	292	0.00	29.865 
20:50	84.0	84.0	90.5	70	73.1	0	1	292	0.00	29.865 
20:55	84.0	84.0	90.5	70	73.1	0	1	292	0.00	29.865 
21:00	83.8	83.8	90.4	71	73.4	0	0	---	0.00	29.866 
21:05	83.6	83.6	89.9	71	73.2	0	1	292	0.00	29.866 
21:10	83.4	83.4	89.8	72	73.4	0	0	---	0.00	29.866 
21:15	83.4	83.4	90.1	73	73.8	0	0	---	0.00	29.861 
21:20	83.2	83.2	89.7	73	73.6	0	1	292	0.00	29.861 
21:25	83.2	83.2	89.7	73	73.6	1	3	292	0.00	29.861 
21:30	83.2	83.2	89.7	73	73.6	1	4	270	0.00	29.856 
21:35	83.2	83.2	89.7	73	73.6	1	3	270	0.00	29.856 
21:40	83.4	83.4	90.1	73	73.8	2	7	292	0.00	29.856 
21:45	83.8	83.8	90.4	71	73.4	3	7	270	0.00	29.872 
21:50	84.0	84.0	90.5	70	73.1	2	7	270	0.00	29.872 
21:55	83.8	83.8	90.0	70	72.9	2	6	248	0.00	29.872 
22:00	83.8	83.8	89.7	69	72.5	2	4	270	0.00	29.874 
22:05	84.0	84.0	90.2	69	72.7	2	5	270	0.00	29.874 
22:10	83.2	83.2	89.1	71	72.8	5	15	270	0.00	29.874 
22:15	74.9	74.9	74.9	72	65.2	8	20	315	0.02	29.976 
22:20	70.9	70.9	70.9	84	65.8	5	11	270	0.06	29.976 
22:25	69.3	69.3	69.3	88	65.6	5	9	270	0.05	29.976 
22:30	68.6	68.6	68.6	90	65.5	3	6	292	0.04	29.992 
22:35	68.3	68.3	68.3	92	65.9	2	6	270	0.04	29.992 
22:40	68.1	68.1	68.1	92	65.7	1	4	270	0.02	29.992 
22:45	68.1	68.1	68.1	93	66.0	1	4	270	0.03	29.994 
22:50	68.1	68.1	68.1	93	66.0	1	3	270	0.01	29.994 
22:55	67.9	67.9	67.9	93	65.8	2	5	315	0.01	29.994 
23:00	67.9	67.9	67.9	94	66.1	2	4	270	0.01	29.994 
23:05	67.8	67.8	67.8	94	66.0	2	5	270	0.01	29.994 
23:10	67.8	67.8	67.8	94	66.0	2	4	315	0.01	29.994 
23:15	67.6	67.6	67.6	94	65.8	1	3	270	0.01	29.977 
23:20	67.6	67.6	67.6	94	65.8	0	2	270	0.01	29.977 
23:25	67.6	67.6	67.6	94	65.8	0	3	270	0.00	29.977 
23:30	67.6	67.6	67.6	94	65.8	0	2	270	0.00	29.964 
23:35	67.6	67.6	67.6	95	66.1	0	2	270	0.00	29.964 
23:40	67.6	67.6	67.6	95	66.1	1	3	270	0.00	29.964 
23:45	67.6	67.6	67.6	95	66.1	0	3	270	0.00	29.945 
23:50	67.6	67.6	67.6	95	66.1	1	4	270	0.00	29.945 
23:55	67.4	67.4	67.4	95	65.9	1	4	270	0.00	29.945 

CoCoRaHS
IN-AL-39
A2 Web Hosting
Creative Commons License
GoDaddy
search engine by freefind advanced

loaded 2018-11-22 06:10:57 • last modified 2010-11-18 10:43:29
Privacy PolicyDisclaimer
• wx.awcolley.com is powered by PmWiki v.2002016 •
• all content (unless otherwise noted) © 2018 A W Colley